Time;durP1;ratioP1;P1;durP2;ratioP2;P2;SDS_P1;SDS_P2;PMS_P1;PMS_P2;Temp;Humidity;BMP_temperature;BMP_pressure;BME280_temperature;BME280_humidity;BME280_pressure;Samples;Min_cycle;Max_cycle;Signal;HPM_P1;HPM_P2
2021/12/01 00:02:09;;;;;;;26.10;3.72;;;;;;;2.32;100.00;99998.28;4861162;29;20033;-77
2021/12/01 00:04:34;;;;;;;24.95;4.22;;;;;;;2.32;100.00;99984.53;4879120;29;20165;-76
2021/12/01 00:07:00;;;;;;;22.40;3.50;;;;;;;2.32;100.00;99969.81;4890350;29;20144;-77
2021/12/01 00:09:26;;;;;;;26.00;4.40;;;;;;;2.34;100.00;99959.34;4876046;29;20155;-75
2021/12/01 00:11:51;;;;;;;20.48;4.35;;;;;;;2.35;100.00;99950.63;4889617;29;20032;-77
2021/12/01 00:14:17;;;;;;;18.17;3.67;;;;;;;2.40;100.00;99951.13;4890157;29;20808;-75
2021/12/01 00:16:42;;;;;;;18.88;3.70;;;;;;;2.48;100.00;99947.97;4878134;29;20070;-76
2021/12/01 00:19:08;;;;;;;23.25;5.07;;;;;;;2.52;100.00;99939.03;4858528;29;20476;-76
2021/12/01 00:21:34;;;;;;;17.60;3.42;;;;;;;2.48;100.00;99927.25;4877259;29;20032;-75
2021/12/01 00:23:59;;;;;;;14.88;3.40;;;;;;;2.51;100.00;99924.44;4889808;29;20222;-76
2021/12/01 00:26:25;;;;;;;16.58;3.03;;;;;;;2.50;100.00;99918.44;4861122;29;20040;-75
2021/12/01 00:28:50;;;;;;;18.48;3.55;;;;;;;2.48;100.00;99906.56;4891306;29;20123;-76
2021/12/01 00:31:16;;;;;;;22.17;4.05;;;;;;;2.60;100.00;99899.63;4874682;29;20111;-76
2021/12/01 00:33:41;;;;;;;19.95;3.55;;;;;;;2.56;100.00;99896.44;4874876;29;20470;-76
2021/12/01 00:36:13;;;;;;;19.40;3.90;;;;;;;2.52;100.00;99888.09;4893117;29;20111;-76
2021/12/01 00:38:39;;;;;;;15.48;3.03;;;;;;;2.54;100.00;99887.97;4891876;29;20029;-76
2021/12/01 00:41:07;;;;;;;21.95;3.53;;;;;;;2.56;100.00;99872.31;4868832;29;20043;-75
2021/12/01 00:43:36;;;;;;;21.25;3.42;;;;;;;2.62;100.00;99866.66;4882275;29;20050;-76
2021/12/01 00:46:40;;;;;;;29.15;4.15;;;;;;;2.65;100.00;99859.50;4886930;29;20079;-76
2021/12/01 00:48:54;;;;;;;21.73;3.72;;;;;;;2.67;100.00;99849.84;4887905;29;20049;-77
2021/12/01 00:51:19;;;;;;;25.60;4.10;;;;;;;2.77;100.00;99849.13;4875715;29;20066;-75
2021/12/01 00:53:45;;;;;;;21.63;3.42;;;;;;;2.79;100.00;99852.44;4877254;29;20033;-76
2021/12/01 00:56:11;;;;;;;20.48;3.58;;;;;;;2.75;100.00;99849.28;4862840;29;20052;-76
2021/12/01 00:58:36;;;;;;;20.27;3.33;;;;;;;2.86;100.00;99845.84;4882815;29;20037;-76
2021/12/01 01:01:03;;;;;;;17.95;3.08;;;;;;;2.90;100.00;99840.31;4886014;29;20041;-76
2021/12/01 01:03:31;;;;;;;21.27;3.75;;;;;;;2.90;100.00;99840.31;4872190;29;20421;-75
2021/12/01 01:05:57;;;;;;;30.70;4.32;;;;;;;2.87;100.00;99819.81;4885330;29;20772;-76
2021/12/01 01:08:23;;;;;;;19.10;3.80;;;;;;;2.91;100.00;99823.00;4880229;29;20049;-77
2021/12/01 01:16:25;;;;;;;19.77;4.05;;;;;;;2.98;100.00;99794.84;4896623;29;20123;-75
2021/12/01 01:19:03;;;;;;;26.75;4.50;;;;;;;2.98;100.00;99795.66;4895514;29;20028;-76
2021/12/01 01:21:33;;;;;;;29.75;4.25;;;;;;;3.06;100.00;99789.88;4881902;29;20087;-76
2021/12/01 01:23:59;;;;;;;27.98;4.97;;;;;;;3.03;100.00;99788.38;4871108;29;20072;-76
2021/12/01 01:26:26;;;;;;;21.73;4.40;;;;;;;3.02;100.00;99783.31;4892356;29;20589;-76
2021/12/01 01:28:53;;;;;;;21.77;4.35;;;;;;;3.05;100.00;99773.53;4894094;29;20029;-76
2021/12/01 01:31:20;;;;;;;19.38;5.05;;;;;;;3.01;100.00;99759.13;4861899;29;20050;-77
2021/12/01 01:33:47;;;;;;;27.67;4.65;;;;;;;3.01;100.00;99750.56;4882985;29;20032;-77
2021/12/01 01:36:13;;;;;;;28.60;5.50;;;;;;;3.05;100.00;99755.38;4897634;29;20029;-75
2021/12/01 01:38:39;;;;;;;21.67;5.25;;;;;;;3.06;100.00;99751.03;4908840;29;20104;-75
2021/12/01 01:41:08;;;;;;;25.20;4.80;;;;;;;3.10;100.00;99744.63;4895556;29;20040;-76
2021/12/01 01:43:35;;;;;;;21.85;5.22;;;;;;;3.07;100.00;99744.88;4882039;29;20037;-76
2021/12/01 01:46:03;;;;;;;23.80;4.32;;;;;;;2.99;100.00;99727.34;4895552;29;20601;-76
2021/12/01 01:48:32;;;;;;;24.83;5.00;;;;;;;2.97;100.00;99718.88;4881375;29;20047;-76
2021/12/01 01:51:01;;;;;;;16.45;4.30;;;;;;;3.03;100.00;99705.47;4865489;29;20041;-77
2021/12/01 01:53:28;;;;;;;20.15;4.80;;;;;;;3.14;100.00;99694.22;4879478;29;20033;-76
2021/12/01 01:55:57;;;;;;;22.73;5.57;;;;;;;3.08;100.00;99676.56;4878515;29;20049;-76
2021/12/01 01:58:24;;;;;;;23.02;5.85;;;;;;;3.16;100.00;99686.31;4877783;29;20037;-76
2021/12/01 02:01:06;;;;;;;23.15;6.10;;;;;;;3.13;100.00;99674.44;4881951;29;20526;-76
2021/12/01 02:03:37;;;;;;;28.27;7.15;;;;;;;3.16;100.00;99671.59;4878385;29;20029;-76
2021/12/01 02:06:04;;;;;;;32.70;6.82;;;;;;;3.15;100.00;99664.78;4866517;29;20480;-76
2021/12/01 02:08:34;;;;;;;28.45;6.70;;;;;;;3.13;100.00;99653.72;4894201;29;20558;-76
2021/12/01 02:11:04;;;;;;;25.80;6.88;;;;;;;3.22;100.00;99663.34;4866909;29;20080;-76
2021/12/01 02:13:31;;;;;;;30.27;8.02;;;;;;;3.30;100.00;99654.94;4897107;29;20150;-75
2021/12/01 02:15:58;;;;;;;37.90;7.85;;;;;;;3.35;100.00;99649.34;4893448;29;20061;-75
2021/12/01 02:18:25;;;;;;;27.73;7.70;;;;;;;3.33;100.00;99633.91;4866110;29;20411;-75
2021/12/01 02:21:11;;;;;;;34.47;8.27;;;;;;;3.29;100.00;99638.53;4873276;29;20040;-75
2021/12/01 02:23:40;;;;;;;31.63;7.82;;;;;;;3.40;100.00;99634.25;4897023;29;20115;-78
2021/12/01 02:26:07;;;;;;;33.22;8.02;;;;;;;3.31;100.00;99631.47;4896132;29;20047;-77
2021/12/01 02:28:33;;;;;;;29.58;7.53;;;;;;;3.28;100.00;99618.75;4897557;29;20033;-77
2021/12/01 02:30:59;;;;;;;24.83;7.88;;;;;;;3.31;100.00;99609.91;4897349;29;20076;-76
2021/12/01 02:33:25;;;;;;;20.48;7.43;;;;;;;3.33;100.00;99591.63;4880874;29;20064;-76
2021/12/01 02:35:51;;;;;;;26.98;7.45;;;;;;;3.45;100.00;99588.03;4896400;29;20039;-76
2021/12/01 02:38:18;;;;;;;25.23;8.45;;;;;;;3.47;100.00;99581.75;4878965;29;20033;-76
2021/12/01 02:40:45;;;;;;;20.33;7.60;;;;;;;3.46;100.00;99574.91;4881155;29;20408;-76
2021/12/01 02:43:12;;;;;;;20.65;7.80;;;;;;;3.43;100.00;99567.41;4897758;29;20028;-76
2021/12/01 02:45:39;;;;;;;29.02;8.45;;;;;;;3.45;100.00;99570.69;4870738;29;20040;-76
2021/12/01 02:48:05;;;;;;;27.15;8.18;;;;;;;3.49;100.00;99566.88;4899281;29;20040;-76
2021/12/01 02:50:31;;;;;;;22.58;8.35;;;;;;;3.51;100.00;99554.59;4898120;29;20080;-76
2021/12/01 02:52:57;;;;;;;16.92;7.75;;;;;;;3.51;100.00;99544.25;4891428;29;20067;-76
2021/12/01 02:55:27;;;;;;;19.48;7.43;;;;;;;3.55;100.00;99544.00;4894678;29;20768;-76
2021/12/01 02:57:53;;;;;;;21.33;7.32;;;;;;;3.59;100.00;99527.22;4865437;29;20099;-76
2021/12/01 03:00:22;;;;;;;21.08;7.65;;;;;;;3.54;100.00;99513.81;4879094;29;20040;-77
2021/12/01 03:02:48;;;;;;;15.95;6.78;;;;;;;3.57;100.00;99508.38;4882349;29;20188;-76
2021/12/01 03:05:18;;;;;;;21.70;6.95;;;;;;;3.59;100.00;99501.28;4882704;29;20499;-77
2021/12/01 03:07:44;;;;;;;17.67;7.20;;;;;;;3.57;100.00;99492.81;4882495;29;20071;-76
2021/12/01 03:10:10;;;;;;;15.27;6.50;;;;;;;3.60;100.00;99484.75;4880033;29;20032;-77
2021/12/01 03:12:38;;;;;;;16.25;6.10;;;;;;;3.59;100.00;99483.94;4896706;29;20032;-77
2021/12/01 03:15:06;;;;;;;22.83;6.18;;;;;;;3.61;100.00;99479.44;4897275;29;20041;-76
2021/12/01 03:17:31;;;;;;;17.13;6.20;;;;;;;3.58;100.00;99461.56;4897164;29;20119;-76
2021/12/01 03:19:58;;;;;;;15.57;6.13;;;;;;;3.67;100.00;99470.31;4883309;29;20721;-77
2021/12/01 03:22:25;;;;;;;16.58;6.00;;;;;;;3.62;100.00;99464.72;4898890;29;20040;-75
2021/12/01 03:24:54;;;;;;;16.70;5.72;;;;;;;3.67;100.00;99436.59;4867979;29;20061;-76
2021/12/01 03:27:20;;;;;;;16.08;5.47;;;;;;;3.61;100.00;99434.56;4868261;29;20055;-76
2021/12/01 03:29:47;;;;;;;12.27;5.57;;;;;;;3.65;100.00;99415.97;4880868;29;20032;-76
2021/12/01 03:32:14;;;;;;;13.88;5.43;;;;;;;3.64;100.00;99395.41;4878679;29;20051;-76
2021/12/01 03:34:42;;;;;;;12.30;5.60;;;;;;;3.64;100.00;99393.63;4881856;29;20037;-77
2021/12/01 03:37:10;;;;;;;11.43;4.93;;;;;;;3.64;100.00;99388.44;4866899;29;20134;-76
2021/12/01 03:39:37;;;;;;;13.13;5.03;;;;;;;3.62;100.00;99387.75;4895374;29;20037;-76
2021/12/01 03:42:03;;;;;;;11.57;5.10;;;;;;;3.66;100.00;99364.97;4873523;29;20045;-76
2021/12/01 03:44:30;;;;;;;9.73;4.43;;;;;;;3.68;100.00;99374.22;4894166;29;20057;-76
2021/12/01 03:46:55;;;;;;;10.45;4.95;;;;;;;3.68;100.00;99363.03;4881049;29;20514;-77
2021/12/01 03:49:21;;;;;;;12.48;4.90;;;;;;;3.76;100.00;99359.78;4880585;29;20040;-76
2021/12/01 03:51:47;;;;;;;13.23;4.85;;;;;;;3.70;100.00;99340.38;4897200;29;20029;-77
2021/12/01 03:54:12;;;;;;;11.82;4.57;;;;;;;3.76;100.00;99346.81;4893181;29;20024;-76
2021/12/01 03:56:38;;;;;;;7.22;3.88;;;;;;;3.71;100.00;99334.22;4882466;29;20044;-76
2021/12/01 03:59:05;;;;;;;9.73;4.82;;;;;;;3.71;100.00;99318.66;4866108;29;20055;-77
2021/12/01 04:01:32;;;;;;;7.20;4.00;;;;;;;3.74;100.00;99320.19;4880934;29;20082;-77
2021/12/01 04:04:00;;;;;;;7.15;3.90;;;;;;;3.69;100.00;99285.13;4863286;29;20135;-76
2021/12/01 04:06:27;;;;;;;7.75;3.60;;;;;;;3.77;100.00;99302.59;4877718;29;20077;-76
2021/12/01 04:08:55;;;;;;;8.43;3.78;;;;;;;3.86;100.00;99290.53;4881368;29;20036;-76
2021/12/01 04:11:21;;;;;;;5.40;3.17;;;;;;;3.84;100.00;99290.69;4879660;29;20562;-77
2021/12/01 04:13:47;;;;;;;8.20;3.20;;;;;;;3.90;100.00;99279.75;4888583;29;20135;-77
2021/12/01 04:16:13;;;;;;;10.93;3.78;;;;;;;3.87;100.00;99280.03;4895104;29;20487;-77
2021/12/01 04:18:39;;;;;;;6.65;3.80;;;;;;;3.95;100.00;99268.16;4894177;29;20051;-75
2021/12/01 04:21:06;;;;;;;5.57;3.08;;;;;;;3.94;100.00;99256.13;4890791;29;20059;-76
2021/12/01 04:23:34;;;;;;;6.50;3.42;;;;;;;3.94;100.00;99243.16;4896755;29;20512;-76
2021/12/01 04:26:01;;;;;;;5.45;3.70;;;;;;;3.93;100.00;99224.19;4890881;29;20124;-76
2021/12/01 04:28:28;;;;;;;8.13;3.38;;;;;;;3.95;100.00;99221.44;4863529;29;20538;-76
2021/12/01 04:30:53;;;;;;;5.38;3.55;;;;;;;4.02;100.00;99214.75;4895304;29;20041;-77
2021/12/01 04:33:19;;;;;;;7.90;3.97;;;;;;;4.03;100.00;99221.53;4876385;29;20037;-77
2021/12/01 04:35:47;;;;;;;8.63;3.70;;;;;;;3.99;100.00;99200.25;4893933;29;20044;-75
2021/12/01 04:38:12;;;;;;;7.18;3.70;;;;;;;3.97;100.00;99191.78;4895079;29;20057;-76
2021/12/01 04:40:38;;;;;;;4.97;3.75;;;;;;;4.01;100.00;99179.38;4880801;29;20139;-76
2021/12/01 04:43:03;;;;;;;4.60;3.58;;;;;;;4.04;100.00;99174.72;4865067;29;20037;-76
2021/12/01 04:45:31;;;;;;;6.88;3.47;;;;;;;4.05;100.00;99163.38;4877943;29;20062;-76
2021/12/01 04:47:57;;;;;;;4.45;3.25;;;;;;;4.04;100.00;99159.13;4893373;29;20044;-77
2021/12/01 04:50:26;;;;;;;4.07;3.50;;;;;;;4.06;100.00;99148.63;4893674;29;20040;-75
2021/12/01 04:52:54;;;;;;;3.83;3.33;;;;;;;4.10;100.00;99140.41;4883629;29;20100;-76
2021/12/01 04:55:19;;;;;;;5.72;3.78;;;;;;;4.09;100.00;99127.59;4868693;29;20069;-76
2021/12/01 04:57:46;;;;;;;4.50;3.58;;;;;;;4.18;100.00;99124.13;4872082;29;20060;-77
2021/12/01 05:00:16;;;;;;;4.65;3.45;;;;;;;4.20;100.00;99109.22;4877484;29;20052;-77
2021/12/01 05:02:42;;;;;;;3.90;3.47;;;;;;;4.24;100.00;99114.94;4875564;29;20126;-76
2021/12/01 05:05:07;;;;;;;4.32;3.38;;;;;;;4.33;100.00;99103.66;4878534;29;20670;-76
2021/12/01 05:07:33;;;;;;;4.13;3.20;;;;;;;4.34;100.00;99102.72;4881867;29;20040;-76
2021/12/01 05:09:59;;;;;;;3.20;2.90;;;;;;;4.36;100.00;99087.00;4864247;29;20077;-76
2021/12/01 05:12:25;;;;;;;4.80;3.10;;;;;;;4.37;100.00;99075.63;4894767;29;20056;-76
2021/12/01 05:14:51;;;;;;;3.40;2.70;;;;;;;4.48;100.00;99070.22;4865515;29;20043;-76
2021/12/01 05:17:19;;;;;;;4.15;3.05;;;;;;;4.56;100.00;99066.88;4894938;29;20044;-76
2021/12/01 05:19:44;;;;;;;3.33;2.95;;;;;;;4.56;100.00;99053.91;4879033;29;20040;-76
2021/12/01 05:22:10;;;;;;;5.10;3.42;;;;;;;4.54;100.00;99055.84;4874547;29;20680;-76
2021/12/01 05:24:36;;;;;;;3.25;2.95;;;;;;;4.60;100.00;99050.88;4882120;29;20040;-77
2021/12/01 05:27:02;;;;;;;3.60;2.92;;;;;;;4.61;100.00;99042.09;4901466;29;20111;-76
2021/12/01 05:29:28;;;;;;;3.42;3.05;;;;;;;4.64;100.00;99022.81;4900076;29;20583;-76
2021/12/01 05:31:55;;;;;;;4.32;3.35;;;;;;;4.70;100.00;99016.22;4903987;29;20029;-76
2021/12/01 05:34:21;;;;;;;3.35;3.03;;;;;;;4.70;100.00;99011.00;4900903;29;20087;-77
2021/12/01 05:36:47;;;;;;;3.10;2.80;;;;;;;4.80;100.00;99003.94;4897634;29;20040;-77
2021/12/01 05:39:12;;;;;;;2.80;2.60;;;;;;;4.80;100.00;98996.13;4869769;29;20047;-77
2021/12/01 05:41:38;;;;;;;3.53;3.22;;;;;;;4.82;100.00;98992.44;4900649;29;20039;-76
2021/12/01 05:44:04;;;;;;;4.22;3.10;;;;;;;4.80;100.00;98984.00;4882003;29;20048;-77
2021/12/01 05:46:30;;;;;;;5.90;3.80;;;;;;;4.79;100.00;98976.34;4885771;29;20068;-76
2021/12/01 05:48:55;;;;;;;3.80;3.50;;;;;;;4.86;100.00;98962.59;4895831;29;20120;-76
2021/12/01 05:51:21;;;;;;;3.33;3.03;;;;;;;4.93;100.00;98960.16;4879017;29;20495;-77
2021/12/01 05:53:48;;;;;;;3.85;3.45;;;;;;;5.01;100.00;98952.44;4868149;29;20044;-78
2021/12/01 05:56:15;;;;;;;4.22;3.17;;;;;;;4.99;100.00;98930.16;4881642;29;20487;-76
2021/12/01 05:58:41;;;;;;;4.03;3.63;;;;;;;5.14;100.00;98939.03;4879604;29;20099;-76
2021/12/01 06:01:07;;;;;;;5.38;4.00;;;;;;;5.23;100.00;98932.06;4895935;29;20365;-77
2021/12/01 06:03:33;;;;;;;6.78;4.65;;;;;;;5.31;100.00;98919.09;4896195;29;20036;-77
2021/12/01 06:05:59;;;;;;;6.45;5.45;;;;;;;5.36;100.00;98910.84;4867762;29;20079;-78
2021/12/01 06:08:25;;;;;;;10.02;6.20;;;;;;;5.45;100.00;98896.88;4882889;29;20510;-77
2021/12/01 06:10:51;;;;;;;8.77;7.10;;;;;;;5.59;100.00;98893.66;4862943;29;20051;-77
2021/12/01 06:13:18;;;;;;;13.60;7.28;;;;;;;5.72;100.00;98890.59;4880580;29;20031;-76
2021/12/01 06:15:44;;;;;;;12.43;8.43;;;;;;;5.77;100.00;98890.94;4884318;29;20071;-76
2021/12/01 06:18:11;;;;;;;12.10;8.63;;;;;;;5.83;100.00;98876.47;4898862;29;20495;-77
2021/12/01 06:20:38;;;;;;;14.80;9.35;;;;;;;5.82;100.00;98852.25;4884079;29;20067;-77
2021/12/01 06:23:04;;;;;;;18.10;10.52;;;;;;;5.95;100.00;98862.19;4866994;29;20108;-76
2021/12/01 06:25:29;;;;;;;15.27;10.80;;;;;;;6.13;100.00;98851.59;4896924;29;20486;-76
2021/12/01 06:27:56;;;;;;;16.33;11.32;;;;;;;6.28;100.00;98856.16;4883270;29;20036;-77
2021/12/01 06:30:26;;;;;;;16.70;11.02;;;;;;;6.39;100.00;98843.59;4878054;29;20051;-77
2021/12/01 06:32:53;;;;;;;18.13;12.13;;;;;;;6.56;100.00;98840.97;4898681;29;20468;-77
2021/12/01 06:35:19;;;;;;;17.73;11.38;;;;;;;6.67;100.00;98837.16;4882801;29;20040;-77
2021/12/01 06:37:46;;;;;;;15.45;10.68;;;;;;;6.86;100.00;98841.19;4892062;29;20407;-77
2021/12/01 06:40:12;;;;;;;14.82;10.27;;;;;;;6.87;100.00;98821.94;4896359;29;20071;-77
2021/12/01 06:42:38;;;;;;;11.85;9.57;;;;;;;7.00;100.00;98804.78;4896589;29;20037;-77
2021/12/01 06:45:05;;;;;;;11.45;9.13;;;;;;;7.08;100.00;98810.94;4866166;29;20037;-77
2021/12/01 06:47:31;;;;;;;14.50;8.68;;;;;;;7.14;100.00;98812.84;4892254;29;20564;-77
2021/12/01 06:49:56;;;;;;;11.13;8.30;;;;;;;7.15;100.00;98810.06;4894411;29;20166;-75
2021/12/01 06:52:22;;;;;;;9.85;7.85;;;;;;;7.20;100.00;98801.75;4877541;29;20064;-77
2021/12/01 06:54:47;;;;;;;8.18;7.28;;;;;;;7.16;100.00;98798.69;4895715;29;20044;-77
2021/12/01 06:57:13;;;;;;;8.45;7.40;;;;;;;7.18;100.00;98801.13;4881506;29;20052;-77
2021/12/01 06:59:39;;;;;;;8.00;7.20;;;;;;;7.18;100.00;98796.72;4872723;29;20124;-77
2021/12/01 07:02:04;;;;;;;8.02;6.93;;;;;;;7.24;100.00;98795.22;4865316;29;20040;-76
2021/12/01 07:04:30;;;;;;;8.60;6.07;;;;;;;7.26;100.00;98774.97;4863131;29;20044;-76
2021/12/01 07:06:58;;;;;;;8.27;5.75;;;;;;;7.30;100.00;98776.25;4862837;29;20495;-77
2021/12/01 07:09:25;;;;;;;5.60;5.10;;;;;;;7.29;100.00;98773.81;4894790;29;20057;-76
2021/12/01 07:11:51;;;;;;;7.38;4.80;;;;;;;7.28;100.00;98757.38;4876050;29;20473;-76
2021/12/01 07:14:17;;;;;;;5.22;4.47;;;;;;;7.24;100.00;98757.91;4881786;29;20076;-77
2021/12/01 07:16:43;;;;;;;5.13;4.63;;;;;;;7.16;100.00;98763.97;4893465;29;20131;-76
2021/12/01 07:19:09;;;;;;;7.85;4.55;;;;;;;7.28;100.00;98752.16;4878261;29;20036;-76
2021/12/01 07:21:35;;;;;;;4.40;4.00;;;;;;;7.32;100.00;98744.78;4885248;29;20562;-75
2021/12/01 07:24:03;;;;;;;4.50;4.10;;;;;;;7.30;100.00;98726.69;4895579;29;20492;-76
2021/12/01 07:26:29;;;;;;;4.50;4.07;;;;;;;7.31;100.00;98736.16;4897308;29;20080;-76
2021/12/01 07:28:55;;;;;;;4.47;4.07;;;;;;;7.30;100.00;98734.53;4882562;29;20033;-76
2021/12/01 07:31:21;;;;;;;4.10;3.80;;;;;;;7.24;100.00;98724.81;4895362;29;21073;-76
2021/12/01 07:33:46;;;;;;;5.57;4.18;;;;;;;7.25;100.00;98720.38;4894093;29;20092;-76
2021/12/01 07:36:14;;;;;;;5.18;4.68;;;;;;;7.25;100.00;98721.19;4869569;29;20139;-76
2021/12/01 07:38:40;;;;;;;5.15;4.65;;;;;;;7.25;100.00;98708.16;4872934;29;20036;-77
2021/12/01 07:41:06;;;;;;;5.18;4.38;;;;;;;7.24;100.00;98705.75;4878475;29;20180;-77
2021/12/01 07:43:31;;;;;;;6.93;4.72;;;;;;;7.19;100.00;98701.84;4893482;29;20474;-77
2021/12/01 07:45:57;;;;;;;5.13;4.60;;;;;;;7.20;100.00;98700.88;4894659;29;20049;-76
2021/12/01 07:48:23;;;;;;;5.20;4.80;;;;;;;7.11;100.00;98696.69;4896414;29;20048;-76
2021/12/01 07:50:48;;;;;;;4.07;3.78;;;;;;;7.14;100.00;98692.91;4864981;29;20073;-76
2021/12/01 07:53:14;;;;;;;3.95;3.63;;;;;;;7.20;100.00;98692.25;4878072;29;20068;-76
2021/12/01 07:55:39;;;;;;;4.28;3.92;;;;;;;7.16;100.00;98689.16;4865915;29;20412;-76
2021/12/01 07:58:05;;;;;;;4.30;3.95;;;;;;;7.02;100.00;98684.69;4879846;29;20044;-77
2021/12/01 08:00:31;;;;;;;3.58;3.30;;;;;;;7.07;100.00;98681.59;4881400;29;20119;-77
2021/12/01 08:02:56;;;;;;;3.55;3.25;;;;;;;7.02;100.00;98667.25;4894716;29;20167;-76
2021/12/01 08:05:22;;;;;;;3.40;3.10;;;;;;;7.03;100.00;98662.88;4882032;29;20040;-77
2021/12/01 08:07:50;;;;;;;3.28;3.00;;;;;;;7.09;100.00;98667.38;4865882;29;20050;-77
2021/12/01 08:10:16;;;;;;;2.70;2.50;;;;;;;7.10;100.00;98665.59;4886111;29;20044;-76
2021/12/01 08:12:41;;;;;;;3.30;2.20;;;;;;;7.09;100.00;98654.34;4881010;29;20039;-76
2021/12/01 08:15:08;;;;;;;2.55;2.35;;;;;;;7.02;100.00;98661.25;4867526;29;20036;-76
2021/12/01 08:17:34;;;;;;;2.75;2.55;;;;;;;6.99;100.00;98646.78;4897371;29;20815;-77
2021/12/01 08:20:00;;;;;;;4.50;2.80;;;;;;;6.98;100.00;98649.53;4866148;29;20045;-77
2021/12/01 08:22:26;;;;;;;3.20;2.80;;;;;;;6.97;100.00;98648.75;4878056;29;20036;-75
2021/12/01 08:24:54;;;;;;;2.90;2.70;;;;;;;6.92;100.00;98632.00;4882462;29;20400;-76
2021/12/01 08:27:20;;;;;;;3.42;3.13;;;;;;;6.95;100.00;98636.84;4897748;29;20043;-77
2021/12/01 08:29:46;;;;;;;3.40;3.05;;;;;;;6.99;100.00;98631.13;4898161;29;20519;-76
2021/12/01 08:32:12;;;;;;;3.83;3.42;;;;;;;7.00;100.00;98629.31;4894521;29;20052;-76
2021/12/01 08:34:38;;;;;;;7.10;3.30;;;;;;;6.91;100.00;98620.78;4897284;29;20052;-77
2021/12/01 08:37:07;;;;;;;3.92;3.35;;;;;;;6.96;100.00;98630.66;4865542;29;20048;-75
2021/12/01 08:39:34;;;;;;;5.22;3.65;;;;;;;6.98;100.00;98621.69;4866320;29;20112;-77
2021/12/01 08:42:00;;;;;;;4.32;3.60;;;;;;;6.95;100.00;98616.00;4897862;29;20079;-77
2021/12/01 08:44:25;;;;;;;5.40;3.20;;;;;;;6.98;100.00;98618.28;4896224;29;20064;-76
2021/12/01 08:46:51;;;;;;;4.53;3.67;;;;;;;7.00;100.00;98609.28;4895343;29;20074;-76
2021/12/01 08:49:16;;;;;;;4.97;3.90;;;;;;;6.96;100.00;98605.41;4879912;29;20055;-77
2021/12/01 08:51:42;;;;;;;4.07;3.67;;;;;;;6.97;100.00;98608.84;4866953;29;20043;-77
2021/12/01 08:54:13;;;;;;;4.57;4.15;;;;;;;6.94;100.00;98607.38;4875930;29;20037;-76
2021/12/01 08:56:41;;;;;;;5.00;4.13;;;;;;;6.99;100.00;98596.44;4906275;29;20430;-77
2021/12/01 08:59:06;;;;;;;4.47;4.07;;;;;;;6.96;100.00;98592.38;4896843;29;20036;-76
2021/12/01 09:01:32;;;;;;;4.45;3.83;;;;;;;7.01;100.00;98587.44;4878660;29;20048;-77
2021/12/01 09:03:58;;;;;;;5.05;3.63;;;;;;;7.01;100.00;98574.41;4867234;29;20067;-76
2021/12/01 09:06:23;;;;;;;4.28;3.88;;;;;;;6.99;100.00;98562.56;4867194;29;20053;-77
2021/12/01 09:08:49;;;;;;;4.30;3.80;;;;;;;7.01;100.00;98558.78;4885636;29;20055;-76
2021/12/01 09:11:15;;;;;;;3.90;3.60;;;;;;;7.04;100.00;98559.41;4868705;29;20044;-76
2021/12/01 09:13:40;;;;;;;5.03;3.90;;;;;;;6.97;100.00;98565.34;4901732;29;20016;-76
2021/12/01 09:16:06;;;;;;;4.25;3.70;;;;;;;6.95;100.00;98551.69;4897544;29;20068;-77
2021/12/01 09:18:33;;;;;;;4.68;4.18;;;;;;;6.96;100.00;98544.66;4885828;29;20037;-77
2021/12/01 09:21:01;;;;;;;4.25;3.85;;;;;;;6.92;100.00;98556.44;4879132;29;20140;-76
2021/12/01 09:23:26;;;;;;;4.55;3.95;;;;;;;6.89;100.00;98534.13;4896845;29;20110;-76
2021/12/01 09:25:52;;;;;;;6.68;3.70;;;;;;;6.92;100.00;98533.78;4869086;29;20696;-76
2021/12/01 09:28:22;;;;;;;3.65;3.20;;;;;;;6.88;100.00;98529.09;4900062;29;20036;-76
2021/12/01 09:30:49;;;;;;;3.40;3.10;;;;;;;6.90;100.00;98527.94;4898865;29;20044;-77
2021/12/01 09:33:15;;;;;;;3.20;2.90;;;;;;;6.89;100.00;98525.50;4867158;29;20500;-76
2021/12/01 09:35:41;;;;;;;3.10;2.60;;;;;;;6.92;100.00;98528.56;4880163;29;20033;-77
2021/12/01 09:38:08;;;;;;;4.55;2.50;;;;;;;6.92;100.00;98527.75;4897833;29;20254;-75
2021/12/01 09:40:34;;;;;;;2.75;2.55;;;;;;;6.88;100.00;98524.69;4883919;29;20047;-77
2021/12/01 09:43:00;;;;;;;2.95;2.72;;;;;;;6.91;100.00;98520.91;4868364;29;20036;-77
2021/12/01 09:45:26;;;;;;;2.72;2.53;;;;;;;6.90;100.00;98521.91;4860050;29;20067;-77
2021/12/01 09:47:53;;;;;;;4.60;2.40;;;;;;;6.92;100.00;98517.34;4876722;29;20032;-76
2021/12/01 09:50:19;;;;;;;3.88;2.40;;;;;;;6.94;100.00;98508.34;4881541;29;20131;-77
2021/12/01 09:52:45;;;;;;;2.33;2.13;;;;;;;6.97;100.00;98504.59;4885639;29;20028;-77
2021/12/01 09:55:13;;;;;;;2.38;2.10;;;;;;;6.99;100.00;98490.38;4864385;29;20079;-75
2021/12/01 09:57:53;;;;;;;2.55;2.00;;;;;;;7.04;100.00;98478.59;4875026;29;20147;-75
2021/12/01 10:00:18;;;;;;;2.10;1.90;;;;;;;7.05;100.00;98482.84;4866382;29;20060;-76
2021/12/01 10:02:44;;;;;;;3.60;1.65;;;;;;;7.07;100.00;98471.25;4883886;29;20033;-77
2021/12/01 10:05:09;;;;;;;1.80;1.70;;;;;;;6.98;100.00;98461.88;4866503;29;20040;-76
2021/12/01 10:07:35;;;;;;;5.28;1.70;;;;;;;7.04;100.00;98468.19;4900239;29;20036;-76
2021/12/01 10:10:09;;;;;;;4.75;1.58;;;;;;;7.07;100.00;98465.22;4898735;29;20062;-76
2021/12/01 10:12:50;;;;;;;2.17;1.70;;;;;;;7.04;100.00;98455.16;4869164;29;20476;-77
2021/12/01 10:15:29;;;;;;;1.60;1.50;;;;;;;7.04;100.00;98448.13;4857766;29;20036;-76
2021/12/01 10:18:15;;;;;;;1.90;1.55;;;;;;;7.03;100.00;98430.88;4880674;29;20032;-78
2021/12/01 10:20:43;;;;;;;1.90;1.80;;;;;;;7.05;100.00;98423.69;4867956;29;20032;-75
2021/12/01 10:23:14;;;;;;;2.47;1.77;;;;;;;7.06;100.00;98403.63;4882956;29;20111;-75
2021/12/01 10:25:41;;;;;;;1.67;1.58;;;;;;;7.12;100.00;98395.91;4871169;29;20056;-77
2021/12/01 10:28:07;;;;;;;1.73;1.63;;;;;;;7.07;100.00;98387.81;4893219;29;20119;-76
2021/12/01 10:30:45;;;;;;;1.92;1.60;;;;;;;7.12;100.00;98382.88;4882404;29;21394;-77
2021/12/01 10:33:17;;;;;;;1.98;1.60;;;;;;;7.10;100.00;98369.22;4882006;29;20048;-75
2021/12/01 10:35:43;;;;;;;3.10;1.80;;;;;;;7.14;100.00;98362.66;4880246;29;20132;-77
2021/12/01 10:38:13;;;;;;;1.77;1.67;;;;;;;7.15;100.00;98363.44;4867701;29;20080;-77
2021/12/01 10:40:40;;;;;;;1.70;1.60;;;;;;;7.08;100.00;98355.53;4899217;29;20044;-77
2021/12/01 10:43:09;;;;;;;2.08;1.83;;;;;;;7.14;100.00;98354.00;4896751;29;20503;-78
2021/12/01 10:45:38;;;;;;;1.77;1.67;;;;;;;7.16;100.00;98354.66;4879268;29;20043;-78
2021/12/01 10:48:06;;;;;;;1.98;1.83;;;;;;;7.09;100.00;98354.56;4871002;29;20037;-79
2021/12/01 10:50:35;;;;;;;1.90;1.80;;;;;;;7.09;100.00;98343.34;4884657;29;20041;-78
2021/12/01 10:53:05;;;;;;;1.88;1.77;;;;;;;7.08;100.00;98310.41;4887585;29;20060;-78
2021/12/01 10:55:32;;;;;;;2.92;2.15;;;;;;;7.14;100.00;98317.50;4882457;29;20049;-77
2021/12/01 10:58:02;;;;;;;2.00;1.75;;;;;;;7.09;100.00;98310.25;4886319;29;20099;-77
2021/12/01 11:00:38;;;;;;;1.90;1.70;;;;;;;7.14;100.00;98318.34;4896718;29;20367;-78
2021/12/01 11:03:13;;;;;;;2.67;1.70;;;;;;;7.19;100.00;98296.91;4877131;29;20037;-79
2021/12/01 11:05:47;;;;;;;1.63;1.52;;;;;;;7.12;100.00;98299.47;4874050;29;20519;-77
2021/12/01 11:08:21;;;;;;;1.58;1.48;;;;;;;7.18;100.00;98284.88;4879301;29;20041;-77
2021/12/01 11:11:04;;;;;;;1.98;1.50;;;;;;;7.21;100.00;98285.31;4892222;29;20040;-77
2021/12/01 11:13:30;;;;;;;1.83;1.45;;;;;;;7.21;100.00;98269.69;4878150;29;20077;-76
2021/12/01 11:16:03;;;;;;;2.58;1.50;;;;;;;7.28;100.00;98261.91;4864768;29;20131;-76
2021/12/01 11:18:34;;;;;;;1.75;1.65;;;;;;;7.31;100.00;98245.06;4876916;29;20152;-77
2021/12/01 11:21:05;;;;;;;1.50;1.40;;;;;;;7.32;100.00;98241.47;4879987;29;20105;-76
2021/12/01 11:23:36;;;;;;;2.45;1.40;;;;;;;7.32;100.00;98228.44;4908182;29;21564;-75
2021/12/01 11:26:06;;;;;;;1.50;1.40;;;;;;;7.30;100.00;98217.41;4879392;29;20051;-76
2021/12/01 11:28:38;;;;;;;4.45;1.30;;;;;;;7.40;100.00;98223.91;4862925;29;20049;-76
2021/12/01 11:31:11;;;;;;;1.20;1.10;;;;;;;7.35;100.00;98205.41;4863944;29;20040;-76
2021/12/01 11:33:37;;;;;;;1.38;1.30;;;;;;;7.40;100.00;98217.88;4861208;29;20029;-76
2021/12/01 11:36:06;;;;;;;1.30;1.20;;;;;;;7.40;100.00;98210.06;4896412;29;20044;-76